createdAt,value
2018-11-03T04:56:23.017Z,7.20
2018-11-03T05:00:27.763Z,7.30
2018-11-03T05:04:32.459Z,7.20
2018-11-03T05:08:37.215Z,7.20
2018-11-03T05:12:41.863Z,7.20
2018-11-03T05:16:46.608Z,7.20
2018-11-03T05:20:51.584Z,7.20
2018-11-03T05:24:56.990Z,7.20
2018-11-03T05:29:01.682Z,7.20
2018-11-03T05:33:06.730Z,7.30
2018-11-03T05:37:11.340Z,7.20
2018-11-03T05:41:16.156Z,7.20
2018-11-03T05:45:22.299Z,7.20
2018-11-03T05:49:28.223Z,7.10
2018-11-03T05:53:33.249Z,7.20
2018-11-03T05:57:38.007Z,7.10
2018-11-03T06:01:43.918Z,7.20
2018-11-03T06:05:53.451Z,7.10
2018-11-03T06:09:58.309Z,7.10
2018-11-03T06:14:03.080Z,7.10
2018-11-03T06:18:08.233Z,7.00
2018-11-03T06:22:14.171Z,7.10
2018-11-03T06:26:18.994Z,7.10
2018-11-03T06:30:23.835Z,7.00
2018-11-03T06:34:28.640Z,7.10
2018-11-03T06:38:33.553Z,7.10
2018-11-03T06:42:39.646Z,7.20
2018-11-03T06:46:50.454Z,7.20
2018-11-03T06:51:02.533Z,7.20
2018-11-03T06:55:08.772Z,7.20
2018-11-03T06:59:14.875Z,7.20
2018-11-03T07:03:19.671Z,7.30
2018-11-03T07:07:24.487Z,7.20
2018-11-03T07:11:29.561Z,7.30
2018-11-03T07:15:34.436Z,7.30
2018-11-03T07:19:39.790Z,7.40
2018-11-03T07:23:44.749Z,7.40
2018-11-03T07:27:49.728Z,7.40
2018-11-03T07:31:54.525Z,7.40
2018-11-03T07:35:59.597Z,7.60
2018-11-03T07:40:05.336Z,7.50
2018-11-03T07:44:10.576Z,7.50
2018-11-03T07:48:27.789Z,7.50
2018-11-03T07:52:32.571Z,7.50
2018-11-03T07:56:37.316Z,7.50
2018-11-03T08:00:42.108Z,7.70
2018-11-03T08:04:47.926Z,7.80
2018-11-03T08:08:53.486Z,8.10
2018-11-03T08:12:58.829Z,8.30
2018-11-03T08:17:03.601Z,8.50
2018-11-03T08:21:08.422Z,8.60
2018-11-03T08:25:13.223Z,8.70
2018-11-03T08:29:23.796Z,8.80
2018-11-03T08:33:28.544Z,9.00
2018-11-03T08:37:37.757Z,9.00
2018-11-03T08:41:43.929Z,9.00
2018-11-03T08:45:52.871Z,9.50
2018-11-03T08:49:57.547Z,9.70
2018-11-03T08:54:22.471Z,10.00
2018-11-03T08:58:27.753Z,10.50
2018-11-03T09:02:32.756Z,10.60
2018-11-03T09:06:39.442Z,10.50
2018-11-03T09:10:44.433Z,10.50
2018-11-03T09:14:50.784Z,10.50
2018-11-03T09:18:55.721Z,10.50
2018-11-03T09:23:01.462Z,10.80
2018-11-03T09:27:07.431Z,10.90
2018-11-03T09:31:12.330Z,11.20
2018-11-03T09:35:19.694Z,11.30
2018-11-03T09:39:25.499Z,11.40
2018-11-03T09:43:32.389Z,12.10
2018-11-03T09:47:38.361Z,12.20
2018-11-03T09:51:43.391Z,12.50
2018-11-03T09:55:48.391Z,12.50
2018-11-03T09:59:53.162Z,12.90
2018-11-03T10:04:00.551Z,13.10
2018-11-03T10:08:05.923Z,13.10
2018-11-03T10:12:10.759Z,13.10
2018-11-03T10:16:17.020Z,13.10
2018-11-03T10:20:21.891Z,12.10
2018-11-03T10:24:26.616Z,11.80
2018-11-03T10:28:35.636Z,11.10
2018-11-03T10:32:44.981Z,11.10
2018-11-03T10:36:55.680Z,11.20
2018-11-03T10:41:00.383Z,11.10
2018-11-03T10:45:06.960Z,11.00
2018-11-03T10:49:11.789Z,11.00
2018-11-03T10:53:16.961Z,10.80
2018-11-03T10:57:21.951Z,10.90
2018-11-03T11:01:32.199Z,10.90
2018-11-03T11:05:39.419Z,11.00
2018-11-03T11:09:49.674Z,11.00
2018-11-03T11:13:54.435Z,10.80
2018-11-03T11:17:59.410Z,10.80
2018-11-03T11:22:04.414Z,10.70
2018-11-03T11:26:09.302Z,10.60
2018-11-03T11:30:14.047Z,10.50
2018-11-03T11:34:18.747Z,10.50
2018-11-03T11:38:23.499Z,10.60
2018-11-03T11:42:30.515Z,10.60
2018-11-03T11:46:36.232Z,10.50
2018-11-03T11:50:42.310Z,10.40
2018-11-03T11:54:47.057Z,10.40
2018-11-03T11:58:51.722Z,10.50
2018-11-03T12:02:57.208Z,10.50
2018-11-03T12:07:02.097Z,10.50
2018-11-03T12:11:07.251Z,10.40
2018-11-03T12:15:11.976Z,10.50
2018-11-03T12:19:16.755Z,10.50
2018-11-03T12:23:21.546Z,10.50
2018-11-03T12:27:26.231Z,10.50
2018-11-03T12:31:31.001Z,10.50
2018-11-03T12:35:35.980Z,10.70
2018-11-03T12:39:40.784Z,10.90
2018-11-03T12:43:45.616Z,11.10
2018-11-03T12:47:50.352Z,11.00
2018-11-03T12:51:55.174Z,11.00
2018-11-03T12:56:00.124Z,10.90
2018-11-03T13:00:05.205Z,11.00
2018-11-03T13:04:10.085Z,11.10
2018-11-03T13:08:14.902Z,10.80
2018-11-03T13:12:19.775Z,10.50
2018-11-03T13:16:25.036Z,10.50
2018-11-03T13:20:30.478Z,10.50
2018-11-03T13:24:35.966Z,10.40
2018-11-03T13:28:40.771Z,10.40
2018-11-03T13:32:45.499Z,10.30
2018-11-03T13:36:50.279Z,10.30
2018-11-03T13:40:55.091Z,10.30
2018-11-03T13:45:00.381Z,10.20
2018-11-03T13:49:05.134Z,10.20
2018-11-03T13:53:09.792Z,10.10
2018-11-03T13:57:15.601Z,10.20
2018-11-03T14:01:21.151Z,10.20
2018-11-03T14:05:25.835Z,10.20
2018-11-03T14:09:30.536Z,10.20
2018-11-03T14:15:05.741Z,10.20
2018-11-03T14:19:11.310Z,10.20
2018-11-03T14:23:18.420Z,10.20
2018-11-03T14:27:23.448Z,10.40
2018-11-03T14:31:31.231Z,10.30
2018-11-03T14:35:36.131Z,10.20
2018-11-03T14:39:40.977Z,10.20
2018-11-03T14:43:48.029Z,10.20
2018-11-03T14:47:53.993Z,10.10
2018-11-03T14:52:01.783Z,10.10
2018-11-03T14:56:09.232Z,10.10
2018-11-03T15:00:16.310Z,10.10
2018-11-03T15:04:22.207Z,10.00
2018-11-03T15:08:27.018Z,10.10
2018-11-03T15:12:31.856Z,10.00
2018-11-03T15:16:36.968Z,10.00
2018-11-03T15:20:43.700Z,10.00
2018-11-03T15:24:49.985Z,10.00
2018-11-03T15:28:55.392Z,10.00
2018-11-03T15:33:01.342Z,10.00
2018-11-03T15:37:06.408Z,10.00
2018-11-03T15:41:12.101Z,10.00
2018-11-03T15:45:18.046Z,10.00
2018-11-03T15:49:24.960Z,10.00
2018-11-03T15:53:29.873Z,10.00
2018-11-03T15:57:36.779Z,10.10
2018-11-03T16:01:42.615Z,10.00
2018-11-03T16:05:47.384Z,10.00
2018-11-03T16:09:52.388Z,9.90
2018-11-03T16:14:00.184Z,9.90
2018-11-03T16:18:05.218Z,9.90
2018-11-03T16:22:09.899Z,9.90
2018-11-03T16:26:14.623Z,9.80
2018-11-03T16:30:19.321Z,9.90
2018-11-03T16:34:24.670Z,9.70
2018-11-03T16:38:29.597Z,9.80
2018-11-03T16:42:34.423Z,9.70
2018-11-03T16:46:39.210Z,9.50
2018-11-03T16:50:44.036Z,9.50
2018-11-03T16:54:48.708Z,9.40
2018-11-03T16:58:53.924Z,9.30
2018-11-03T17:03:01.268Z,9.30
2018-11-03T17:07:06.631Z,9.20
2018-11-03T17:11:11.488Z,9.20
2018-11-03T17:15:16.704Z,9.10
2018-11-03T17:19:21.384Z,9.10
2018-11-03T17:23:27.398Z,9.10
2018-11-03T17:27:32.353Z,9.10
2018-11-03T17:31:39.963Z,9.10
2018-11-03T17:35:48.602Z,9.00
2018-11-03T17:39:53.349Z,9.00
2018-11-03T17:43:58.233Z,8.90
2018-11-03T17:48:03.303Z,8.90
2018-11-03T17:52:08.006Z,8.90
2018-11-03T17:56:15.000Z,8.80
2018-11-03T18:00:21.377Z,8.80
2018-11-03T18:04:27.182Z,8.80
2018-11-03T18:08:32.143Z,8.70
2018-11-03T18:12:36.960Z,8.70
2018-11-03T18:16:41.731Z,8.70
2018-11-03T18:20:48.479Z,8.70
2018-11-03T18:24:53.198Z,8.60
2018-11-03T18:29:01.538Z,8.60
2018-11-03T18:33:06.315Z,8.50
2018-11-03T18:45:47.549Z,8.50
2018-11-03T18:49:52.893Z,8.40
2018-11-03T18:53:57.667Z,8.40
2018-11-03T18:58:02.566Z,8.40
2018-11-03T19:02:08.282Z,8.40
2018-11-03T19:06:16.160Z,8.30
2018-11-03T19:10:47.559Z,8.30
2018-11-03T19:14:57.548Z,8.30
2018-11-03T19:19:10.678Z,8.20
2018-11-03T19:23:16.312Z,8.20
2018-11-03T19:27:22.389Z,8.20
2018-11-03T19:31:31.824Z,8.10
2018-11-03T19:35:42.561Z,8.10
2018-11-03T19:39:48.952Z,8.10
2018-11-03T19:43:53.748Z,8.00
2018-11-03T19:48:03.291Z,8.10
2018-11-03T19:52:12.028Z,8.00
2018-11-03T19:56:19.351Z,8.00
2018-11-03T20:00:24.465Z,7.90
2018-11-03T20:04:31.378Z,7.90
2018-11-03T20:08:38.175Z,7.90
2018-11-03T20:12:44.825Z,7.80
2018-11-03T20:16:51.744Z,7.80
2018-11-03T20:20:56.427Z,7.70
2018-11-03T20:25:05.908Z,7.80
2018-11-03T20:29:13.287Z,7.70
2018-11-03T20:33:18.649Z,7.70
2018-11-03T20:37:23.874Z,7.70
2018-11-03T20:41:30.224Z,7.70
2018-11-03T20:45:38.008Z,7.60
2018-11-03T20:49:45.434Z,7.60
2018-11-03T20:53:53.293Z,7.60
2018-11-03T20:57:58.095Z,7.50
2018-11-03T21:02:05.546Z,7.50
2018-11-03T21:06:11.188Z,7.50
2018-11-03T21:10:17.892Z,7.40
2018-11-03T21:14:23.858Z,7.40
2018-11-03T21:18:28.593Z,7.30
2018-11-03T21:22:33.363Z,7.30
2018-11-03T21:26:38.154Z,7.30
2018-11-03T21:30:43.249Z,7.20
2018-11-03T21:34:47.984Z,7.30
2018-11-03T21:38:52.842Z,7.20
2018-11-03T21:42:57.953Z,7.20
2018-11-03T21:47:02.766Z,7.20
2018-11-03T21:51:07.520Z,7.10
2018-11-03T21:55:12.270Z,7.10
2018-11-03T21:59:17.024Z,7.10
2018-11-03T22:03:22.424Z,7.00
2018-11-03T22:07:30.638Z,7.00
2018-11-03T22:11:40.986Z,7.00
2018-11-03T22:15:47.839Z,6.90
2018-11-03T22:19:59.744Z,6.90
2018-11-03T22:24:15.021Z,6.90
2018-11-03T22:28:20.189Z,6.90
2018-11-03T22:32:31.180Z,6.90
2018-11-03T22:36:41.043Z,6.90
2018-11-03T22:40:48.155Z,6.90
2018-11-03T22:44:53.278Z,6.80
2018-11-03T22:49:00.260Z,6.80
2018-11-03T22:53:05.437Z,6.80
2018-11-03T22:57:11.090Z,6.80
2018-11-03T23:01:15.890Z,6.80
2018-11-03T23:05:20.613Z,6.80
2018-11-03T23:09:25.451Z,6.80
2018-11-03T23:13:30.363Z,6.80
2018-11-03T23:17:35.094Z,6.70
2018-11-03T23:21:39.916Z,6.80
2018-11-03T23:25:44.642Z,6.80
2018-11-03T23:29:49.409Z,6.70
2018-11-03T23:33:54.756Z,6.60
2018-11-03T23:38:00.418Z,6.60
2018-11-03T23:42:05.071Z,6.60
2018-11-03T23:46:09.823Z,6.60
2018-11-03T23:50:14.638Z,6.60
2018-11-03T23:54:19.447Z,6.60
2018-11-03T23:58:24.358Z,6.50
